Time;durP1;ratioP1;P1;durP2;ratioP2;P2;SDS_P1;SDS_P2;PMS_P1;PMS_P2;Temp;Humidity;BMP_temperature;BMP_pressure;BME280_temperature;BME280_humidity;BME280_pressure;Samples;Min_cycle;Max_cycle;Signal;HPM_P1;HPM_P2
2022/11/16 00:02:27;;;;;;;10.00;6.28;;;;;;;;;;5067430;28;20051;-84
2022/11/16 00:04:54;;;;;;;11.02;6.75;;;;;;;;;;5078745;28;20264;-83
2022/11/16 00:07:28;;;;;;;12.25;6.43;;;;;;;;;;5072112;28;20416;-83
2022/11/16 00:09:55;;;;;;;12.07;6.93;;;;;;;;;;5075409;28;20048;-81
2022/11/16 00:12:23;;;;;;;;;;;;;;;;;;5086773;28;20043;-84
2022/11/16 00:14:57;;;;;;;11.40;5.90;;;;;;;;;;5099581;28;20002;-82
2022/11/16 00:17:25;;;;;;;9.55;6.05;;;;;;;;;;5062405;28;20051;-83
2022/11/16 00:19:58;;;;;;;9.70;6.32;;;;;;;;;;5065224;28;20049;-85
2022/11/16 00:22:31;;;;;;;11.10;6.70;;;;;;;;;;5053411;28;20511;-81
2022/11/16 00:24:58;;;;;;;;;;;;;;;;;;5072552;28;20052;-81
2022/11/16 00:27:26;;;;;;;8.40;5.63;;;;;;;;;;5070608;28;19928;-82
2022/11/16 00:30:00;;;;;;;10.65;6.47;;;;;;;;;;5097102;28;20485;-83
2022/11/16 00:32:33;;;;;;;10.05;5.93;;;;;;;;;;5087866;28;20047;-82
2022/11/16 00:35:09;;;;;;;9.35;5.82;;;;;;;;;;5070852;28;20057;-82
2022/11/16 00:37:42;;;;;;;10.18;6.22;;;;;;;;;;5077444;28;20051;-81
2022/11/16 00:40:11;;;;;;;11.63;6.15;;;;;;;;;;5065828;28;20672;-81
2022/11/16 00:42:38;;;;;;;10.52;6.43;;;;;;;;;;5089262;28;20049;-81
2022/11/16 00:45:09;;;;;;;14.25;7.25;;;;;;;;;;5077561;28;20055;-82
2022/11/16 00:47:37;;;;;;;13.07;6.75;;;;;;;;;;5086583;28;20051;-84
2022/11/16 00:50:05;;;;;;;11.43;6.88;;;;;;;;;;5074803;28;20052;-81
2022/11/16 00:52:33;;;;;;;10.50;6.93;;;;;;;;;;5072013;28;20044;-82
2022/11/16 00:55:07;;;;;;;12.93;6.78;;;;;;;;;;5055355;28;20071;-82
2022/11/16 00:57:40;;;;;;;12.90;7.82;;;;;;;;;;5072421;28;20047;-82
2022/11/16 01:00:11;;;;;;;12.63;7.22;;;;;;;;;;5085471;28;20048;-81
2022/11/16 01:02:45;;;;;;;12.05;7.40;;;;;;;;;;5062232;28;20044;-85
2022/11/16 01:05:18;;;;;;;11.73;7.00;;;;;;;;;;5067936;28;20048;-83
2022/11/16 01:07:46;;;;;;;12.40;7.55;;;;;;;;;;5097335;28;20421;-83
2022/11/16 01:10:13;;;;;;;;;;;;;;;;;;5069783;28;20492;-81
2022/11/16 01:12:41;;;;;;;14.25;7.22;;;;;;;;;;5077540;28;20296;-81
2022/11/16 01:15:11;;;;;;;16.08;7.72;;;;;;;;;;5074513;28;20053;-82
2022/11/16 01:17:43;;;;;;;14.00;8.27;;;;;;;;;;5055863;28;20055;-81
2022/11/16 01:20:17;;;;;;;14.45;7.53;;;;;;;;;;5071709;28;20055;-83
2022/11/16 01:22:51;;;;;;;15.95;8.00;;;;;;;;;;5073177;28;20489;-83
2022/11/16 01:25:19;;;;;;;15.15;7.57;;;;;;;;;;5061679;28;20052;-82
2022/11/16 01:27:47;;;;;;;15.77;7.70;;;;;;;;;;5070969;28;20075;-82
2022/11/16 01:30:29;;;;;;;14.25;7.93;;;;;;;;;;5097524;28;20052;-84
2022/11/16 01:33:06;;;;;;;15.57;8.32;;;;;;;;;;5065090;28;20052;-84
2022/11/16 01:35:34;;;;;;;12.77;7.05;;;;;;;;;;5088696;28;20060;-83
2022/11/16 01:38:03;;;;;;;13.63;6.95;;;;;;;;;;5068924;28;20408;-82
2022/11/16 01:40:33;;;;;;;14.50;7.80;;;;;;;;;;5099672;28;20082;-83
2022/11/16 01:43:11;;;;;;;12.55;7.07;;;;;;;;;;5107944;28;20044;-83
2022/11/16 01:45:47;;;;;;;12.80;6.55;;;;;;;;;;5072373;28;20059;-82
2022/11/16 01:48:23;;;;;;;10.68;6.30;;;;;;;;;;5087120;28;20048;-81
2022/11/16 01:50:51;;;;;;;15.50;8.48;;;;;;;;;;5054479;28;20052;-81
2022/11/16 01:53:19;;;;;;;14.35;8.00;;;;;;;;;;5067644;28;20512;-82
2022/11/16 01:55:51;;;;;;;13.07;8.10;;;;;;;;;;5067107;28;20056;-82
2022/11/16 01:58:29;;;;;;;12.48;6.68;;;;;;;;;;5103163;28;20052;-83
2022/11/16 02:01:15;;;;;;;11.80;7.10;;;;;;;;;;5078383;28;20508;-82
2022/11/16 02:03:53;;;;;;;12.65;7.40;;;;;;;;;;5080240;28;20044;-81
2022/11/16 02:06:32;;;;;;;13.68;7.63;;;;;;;;;;5073030;28;20051;-82
2022/11/16 02:12:50;;;;;;;15.30;8.00;;;;;;;;;;5081515;28;20049;-81
2022/11/16 02:15:24;;;;;;;12.93;7.30;;;;;;;;;;5100875;28;20097;-82
2022/11/16 02:18:16;;;;;;;12.27;7.35;;;;;;;;;;5066723;28;20036;-83
2022/11/16 02:20:50;;;;;;;12.10;7.18;;;;;;;;;;5071949;28;20044;-80
2022/11/16 02:23:36;;;;;;;12.60;7.40;;;;;;;;;;5089324;28;20401;-83
2022/11/16 02:26:18;;;;;;;11.52;6.88;;;;;;;;;;5096375;28;20059;-81
2022/11/16 02:28:52;;;;;;;12.52;7.00;;;;;;;;;;5075462;28;20761;-81
2022/11/16 02:31:29;;;;;;;12.85;6.80;;;;;;;;;;5080642;28;20428;-81
2022/11/16 02:34:03;;;;;;;11.88;7.07;;;;;;;;;;5068331;28;20047;-82
2022/11/16 02:36:32;;;;;;;13.52;6.75;;;;;;;;;;5077191;28;20048;-83
2022/11/16 02:39:09;;;;;;;13.88;7.50;;;;;;;;;;5066816;28;20615;-85
2022/11/16 02:41:39;;;;;;;11.88;6.88;;;;;;;;;;5075893;28;20412;-80
2022/11/16 02:44:09;;;;;;;13.27;7.53;;;;;;;;;;5079576;28;20040;-81
2022/11/16 02:46:46;;;;;;;11.05;6.32;;;;;;;;;;5090746;28;20055;-82
2022/11/16 02:49:21;;;;;;;12.48;6.47;;;;;;;;;;5086106;28;20043;-83
2022/11/16 02:51:56;;;;;;;10.63;5.65;;;;;;;;;;5105895;28;20066;-81
2022/11/16 02:54:25;;;;;;;13.85;7.07;;;;;;;;;;5068513;28;20167;-83
2022/11/16 02:57:18;;;;;;;13.07;7.40;;;;;;;;;;5077006;28;20514;-80
2022/11/16 02:59:53;;;;;;;13.52;6.72;;;;;;;;;;5082929;28;20053;-83
2022/11/16 03:02:34;;;;;;;14.05;7.05;;;;;;;;;;5057535;28;20056;-81
2022/11/16 03:05:09;;;;;;;11.05;6.60;;;;;;;;;;5072357;28;20046;-81
2022/11/16 03:07:45;;;;;;;14.80;6.70;;;;;;;;;;5076290;28;20075;-82
2022/11/16 03:11:58;;;;;;;10.30;6.07;;;;;;;;;;5057572;28;20063;-82
2022/11/16 03:13:09;;;;;;;13.98;7.25;;;;;;;;;;5072824;28;20051;-82
2022/11/16 03:15:43;;;;;;;12.80;6.07;;;;;;;;;;5069830;28;20212;-82
2022/11/16 03:18:21;;;;;;;14.38;6.75;;;;;;;;;;5066276;28;20062;-81
2022/11/16 03:20:49;;;;;;;12.50;7.05;;;;;;;;;;5082769;28;20048;-83
2022/11/16 03:23:17;;;;;;;11.20;7.15;;;;;;;;;;5070325;28;20059;-82
2022/11/16 03:25:48;;;;;;;12.38;7.15;;;;;;;;;;5075254;28;20055;-81
2022/11/16 03:28:19;;;;;;;12.40;7.05;;;;;;;;;;5075010;28;20055;-80
2022/11/16 03:30:55;;;;;;;13.43;6.55;;;;;;;;;;5093401;28;20721;-81
2022/11/16 03:33:34;;;;;;;10.40;6.35;;;;;;;;;;5072573;28;20051;-80
2022/11/16 03:36:05;;;;;;;12.57;7.60;;;;;;;;;;5098652;28;20484;-82
2022/11/16 03:38:34;;;;;;;12.77;7.55;;;;;;;;;;5110050;28;20067;-81
2022/11/16 03:41:08;;;;;;;11.18;6.53;;;;;;;;;;5075806;28;20062;-82
2022/11/16 03:43:42;;;;;;;11.85;6.65;;;;;;;;;;5068622;28;20071;-81
2022/11/16 03:46:10;;;;;;;9.30;5.82;;;;;;;;;;5060330;28;20056;-81
2022/11/16 03:48:40;;;;;;;13.13;6.95;;;;;;;;;;5098363;28;20052;-81
2022/11/16 03:51:21;;;;;;;12.55;6.70;;;;;;;;;;5071813;28;20599;-79
2022/11/16 03:53:55;;;;;;;10.82;6.50;;;;;;;;;;5072529;28;20055;-82
2022/11/16 03:56:22;;;;;;;;;;;;;;;;;;5069666;28;20059;-81
2022/11/16 03:58:50;;;;;;;;;;;;;;;;;;5070025;28;20300;-81
2022/11/16 04:01:18;;;;;;;9.68;5.88;;;;;;;;;;5064220;28;20340;-82
2022/11/16 04:03:48;;;;;;;11.52;6.60;;;;;;;;;;5061738;28;20404;-82
2022/11/16 04:28:11;;;;;;;9.07;5.55;;;;;;;;;;5037498;28;20049;-83
2022/11/16 04:29:12;;;;;;;9.82;5.93;;;;;;;;;;5061604;28;20056;-82
2022/11/16 04:40:28;;;;;;;12.07;6.28;;;;;;;;;;5074527;28;20045;-82
2022/11/16 04:42:57;;;;;;;12.75;6.07;;;;;;;;;;5072575;28;20388;-82
2022/11/16 04:48:12;;;;;;;11.32;7.10;;;;;;;;;;5073907;28;20052;-80
2022/11/16 04:50:46;;;;;;;9.15;5.80;;;;;;;;;;5091957;28;20049;-81
2022/11/16 04:53:21;;;;;;;11.18;6.57;;;;;;;;;;5089238;28;20048;-81
2022/11/16 04:56:12;;;;;;;9.52;5.75;;;;;;;;;;5080557;28;20051;-82
2022/11/16 04:58:40;;;;;;;11.50;7.65;;;;;;;;;;5079954;28;20059;-82
2022/11/16 05:01:13;;;;;;;14.27;7.07;;;;;;;;;;5066798;28;20385;-82
2022/11/16 05:03:46;;;;;;;12.20;7.55;;;;;;;;;;5073970;28;20052;-81
2022/11/16 05:06:14;;;;;;;;;;;;;;;;;;5055388;28;20045;-81
2022/11/16 05:08:43;;;;;;;9.20;5.80;;;;;;;;;;5059493;28;19927;-81
2022/11/16 05:11:16;;;;;;;9.35;5.60;;;;;;;;;;5098965;28;20048;-81
2022/11/16 05:13:44;;;;;;;9.18;5.28;;;;;;;;;;5071417;28;20056;-83
2022/11/16 05:16:12;;;;;;;;;;;;;;;;;;5057330;28;20048;-82
2022/11/16 05:18:42;;;;;;;11.82;5.68;;;;;;;;;;5094398;28;19920;-82
2022/11/16 05:21:14;;;;;;;10.18;5.68;;;;;;;;;;5088159;28;20048;-83
2022/11/16 05:26:34;;;;;;;12.63;6.93;;;;;;;;;;5072749;28;20051;-83
2022/11/16 05:29:07;;;;;;;12.25;6.10;;;;;;;;;;5074082;28;20040;-81
2022/11/16 05:31:35;;;;;;;;;;;;;;;;;;5081585;28;20045;-81
2022/11/16 05:34:02;;;;;;;;;;;;;;;;;;5065340;28;19920;-81
2022/11/16 05:36:30;;;;;;;7.93;5.00;;;;;;;;;;5069285;28;20292;-83
2022/11/16 05:39:00;;;;;;;9.15;5.78;;;;;;;;;;5080157;28;20048;-82
2022/11/16 05:41:32;;;;;;;15.43;6.28;;;;;;;;;;5070785;28;20049;-82
2022/11/16 05:43:59;;;;;;;;;;;;;;;;;;5070211;28;20048;-85
2022/11/16 05:46:27;;;;;;;;;;;;;;;;;;5066153;28;19919;-81
2022/11/16 05:48:57;;;;;;;9.57;5.82;;;;;;;;;;5073858;28;19920;-82
2022/11/16 05:51:30;;;;;;;9.25;5.15;;;;;;;;;;5081414;28;20432;-81
2022/11/16 05:54:00;;;;;;;8.10;5.28;;;;;;;;;;5069897;28;20420;-83
2022/11/16 05:56:33;;;;;;;13.82;6.05;;;;;;;;;;5064866;28;20048;-83
2022/11/16 05:59:06;;;;;;;9.63;6.07;;;;;;;;;;5079491;28;20396;-82
2022/11/16 06:01:39;;;;;;;9.98;5.57;;;;;;;;;;5061363;28;20051;-82
2022/11/16 06:04:13;;;;;;;10.60;6.03;;;;;;;;;;5063762;28;20049;-86
2022/11/16 06:06:45;;;;;;;8.85;5.68;;;;;;;;;;5044876;28;20043;-82
2022/11/16 06:09:20;;;;;;;10.82;5.85;;;;;;;;;;5073751;28;20036;-83
2022/11/16 06:11:49;;;;;;;10.15;5.53;;;;;;;;;;5092205;28;20412;-83
2022/11/16 06:14:17;;;;;;;9.63;5.47;;;;;;;;;;5065583;28;20045;-80
2022/11/16 06:16:45;;;;;;;8.57;5.15;;;;;;;;;;5063456;28;20119;-83
2022/11/16 06:19:18;;;;;;;9.35;5.60;;;;;;;;;;5077547;28;20045;-82
2022/11/16 06:21:46;;;;;;;12.00;6.28;;;;;;;;;;5083890;28;20044;-81
2022/11/16 06:24:19;;;;;;;8.20;5.25;;;;;;;;;;5073731;28;20563;-81
2022/11/16 06:26:52;;;;;;;7.53;4.80;;;;;;;;;;5072642;28;20487;-81
2022/11/16 06:29:25;;;;;;;8.63;5.88;;;;;;;;;;5072643;28;20051;-83
2022/11/16 06:31:58;;;;;;;10.25;6.10;;;;;;;;;;5069465;28;20488;-81
2022/11/16 06:34:32;;;;;;;9.68;6.20;;;;;;;;;;5070890;28;20044;-83
2022/11/16 06:37:01;;;;;;;8.70;6.20;;;;;;;;;;5072019;28;20044;-81
2022/11/16 06:39:30;;;;;;;9.50;5.80;;;;;;;;;;5069675;28;20055;-81
2022/11/16 06:42:03;;;;;;;9.68;5.82;;;;;;;;;;5108984;27;20404;-81
2022/11/16 06:44:31;;;;;;;8.10;5.40;;;;;;;;;;5115770;27;20048;-82
2022/11/16 06:47:09;;;;;;;9.20;5.88;;;;;;;;;;5077106;28;20051;-81
2022/11/16 06:49:36;;;;;;;9.48;5.95;;;;;;;;;;5073150;28;20040;-82
2022/11/16 06:52:17;;;;;;;9.45;5.70;;;;;;;;;;5071882;28;20408;-84
2022/11/16 06:54:52;;;;;;;9.43;6.47;;;;;;;;;;5080654;28;20048;-81
2022/11/16 06:57:24;;;;;;;11.57;6.30;;;;;;;;;;5079414;28;20048;-81
2022/11/16 06:59:57;;;;;;;9.43;6.10;;;;;;;;;;5089255;28;20039;-83
2022/11/16 07:02:31;;;;;;;9.05;5.38;;;;;;;;;;5078147;28;20052;-85
2022/11/16 07:05:06;;;;;;;8.23;5.32;;;;;;;;;;5067950;28;20045;-81
2022/11/16 07:07:39;;;;;;;8.77;5.65;;;;;;;;;;5069234;28;20040;-84
2022/11/16 07:10:14;;;;;;;11.02;6.50;;;;;;;;;;5095804;27;20044;-82
2022/11/16 07:12:49;;;;;;;9.90;6.03;;;;;;;;;;5072579;28;20053;-81
2022/11/16 07:15:19;;;;;;;8.77;5.22;;;;;;;;;;5077452;28;20051;-80
2022/11/16 07:17:48;;;;;;;10.30;5.30;;;;;;;;;;5072019;28;20051;-82
2022/11/16 07:20:15;;;;;;;;;;;;;;;;;;5082587;28;20048;-83
2022/11/16 07:22:44;;;;;;;10.35;5.80;;;;;;;;;;5115049;27;19920;-82
2022/11/16 07:25:18;;;;;;;10.95;6.57;;;;;;;;;;5084308;28;20119;-80
2022/11/16 07:27:46;;;;;;;9.98;5.90;;;;;;;;;;5071441;28;20043;-81
2022/11/16 07:30:16;;;;;;;9.48;6.30;;;;;;;;;;5069565;28;20052;-81
2022/11/16 07:33:06;;;;;;;11.93;5.30;;;;;;;;;;5076193;28;20493;-84
2022/11/16 07:35:53;;;;;;;12.13;6.18;;;;;;;;;;5085508;28;20515;-81
2022/11/16 07:38:20;;;;;;;;;;;;;;;;;;5072137;28;20500;-82
2022/11/16 07:40:48;;;;;;;11.55;6.55;;;;;;;;;;5066214;28;19920;-82
2022/11/16 07:43:19;;;;;;;9.50;6.07;;;;;;;;;;5070936;28;20055;-83
2022/11/16 07:46:07;;;;;;;8.88;5.95;;;;;;;;;;5098860;28;20496;-82
2022/11/16 07:48:41;;;;;;;7.32;4.50;;;;;;;;;;5087179;28;20039;-83
2022/11/16 07:51:18;;;;;;;9.85;5.88;;;;;;;;;;5091074;28;20051;-85
2022/11/16 07:54:10;;;;;;;8.93;5.60;;;;;;;;;;5077454;28;20048;-87
2022/11/16 07:56:38;;;;;;;9.73;6.30;;;;;;;;;;5071883;28;20400;-85
2022/11/16 07:59:06;;;;;;;11.30;6.88;;;;;;;;;;5082209;28;20052;-81
2022/11/16 08:01:40;;;;;;;12.60;6.95;;;;;;;;;;5068518;28;20044;-82
2022/11/16 08:04:14;;;;;;;12.15;7.32;;;;;;;;;;5063374;28;20051;-81
2022/11/16 08:06:42;;;;;;;10.27;6.35;;;;;;;;;;5080775;28;20515;-81
2022/11/16 08:09:14;;;;;;;13.00;7.63;;;;;;;;;;5087479;28;20036;-82
2022/11/16 08:11:43;;;;;;;12.50;6.88;;;;;;;;;;5071942;28;20063;-82
2022/11/16 08:14:10;;;;;;;;;;;;;;;;;;5085166;28;20416;-81
2022/11/16 08:16:39;;;;;;;11.77;6.70;;;;;;;;;;5097776;28;20581;-81
2022/11/16 08:19:14;;;;;;;10.10;6.45;;;;;;;;;;5086032;28;20051;-80
2022/11/16 08:21:44;;;;;;;;;;;;;;;;;;5076785;28;20060;-87
2022/11/16 08:24:13;;;;;;;10.63;6.43;;;;;;;;;;5082093;27;20399;-84
2022/11/16 08:26:46;;;;;;;10.30;6.22;;;;;;;;;;5087136;27;20048;-83
2022/11/16 08:29:20;;;;;;;11.23;6.97;;;;;;;;;;5050759;28;20048;-85
2022/11/16 08:31:55;;;;;;;12.40;7.13;;;;;;;;;;5051059;28;20056;-82
2022/11/16 08:34:28;;;;;;;14.45;7.80;;;;;;;;;;5056224;28;20056;-86
2022/11/16 08:36:59;;;;;;;11.82;7.20;;;;;;;;;;5049950;28;20047;-84
2022/11/16 08:39:39;;;;;;;;;;;;;;;;;;5058359;28;20059;-82
2022/11/16 08:42:11;;;;;;;13.73;7.18;;;;;;;;;;5055776;28;19943;-81
2022/11/16 08:44:47;;;;;;;12.63;6.18;;;;;;;;;;5080390;28;20043;-84
2022/11/16 08:47:19;;;;;;;12.25;7.22;;;;;;;;;;5068693;28;20408;-83
2022/11/16 08:49:51;;;;;;;14.10;7.55;;;;;;;;;;5052528;28;20048;-85
2022/11/16 08:52:26;;;;;;;11.63;7.03;;;;;;;;;;5054047;28;20060;-87
2022/11/16 08:54:55;;;;;;;11.65;7.43;;;;;;;;;;5050180;28;20412;-82
2022/11/16 08:57:22;;;;;;;;;;;;;;;;;;5052422;28;20052;-88
2022/11/16 08:59:55;;;;;;;16.55;7.38;;;;;;;;;;5082656;28;19935;-81
2022/11/16 09:02:30;;;;;;;12.80;7.60;;;;;;;;;;5082365;28;20048;-85
2022/11/16 09:05:02;;;;;;;14.82;8.55;;;;;;;;;;5047134;28;20048;-83
2022/11/16 09:07:35;;;;;;;12.70;7.88;;;;;;;;;;5053067;28;20052;-84
2022/11/16 09:10:03;;;;;;;;;;;;;;;;;;5053703;28;20067;-84
2022/11/16 09:12:36;;;;;;;8.98;6.10;;;;;;;;;;5087365;28;19920;-86
2022/11/16 09:15:05;;;;;;;15.30;7.55;;;;;;;;;;5056250;28;20052;-83
2022/11/16 09:17:39;;;;;;;12.93;7.28;;;;;;;;;;5068424;28;20044;-82
2022/11/16 09:20:07;;;;;;;13.60;7.32;;;;;;;;;;5089326;28;20052;-81
2022/11/16 09:22:40;;;;;;;13.77;7.70;;;;;;;;;;5062070;28;20512;-85
2022/11/16 09:25:09;;;;;;;12.45;7.55;;;;;;;;;;5050114;28;20066;-87
2022/11/16 09:27:42;;;;;;;13.00;7.75;;;;;;;;;;5050820;28;20044;-83
2022/11/16 09:30:16;;;;;;;14.57;8.07;;;;;;;;;;5067623;28;20063;-84
2022/11/16 09:32:45;;;;;;;13.38;7.82;;;;;;;;;;5090408;28;20054;-84
2022/11/16 09:35:13;;;;;;;16.98;9.27;;;;;;;;;;5049449;28;20071;-85
2022/11/16 09:37:46;;;;;;;14.23;7.68;;;;;;;;;;5050889;28;20063;-83
2022/11/16 09:40:19;;;;;;;12.63;7.50;;;;;;;;;;5090571;28;20083;-84
2022/11/16 09:42:57;;;;;;;12.88;7.43;;;;;;;;;;5053977;28;20808;-86
2022/11/16 09:45:32;;;;;;;13.90;7.95;;;;;;;;;;5066129;28;20052;-83
2022/11/16 09:48:04;;;;;;;12.63;7.75;;;;;;;;;;5051538;28;20051;-82
2022/11/16 09:50:45;;;;;;;13.38;7.80;;;;;;;;;;5068556;28;20048;-84
2022/11/16 09:53:28;;;;;;;16.40;8.73;;;;;;;;;;5070386;28;20369;-85
2022/11/16 09:55:58;;;;;;;13.48;8.40;;;;;;;;;;5052219;28;20130;-87
2022/11/16 09:58:34;;;;;;;14.75;8.05;;;;;;;;;;5059620;28;20054;-88
2022/11/16 10:01:04;;;;;;;14.65;8.73;;;;;;;;;;5053392;28;20059;-83
2022/11/16 10:03:42;;;;;;;14.57;8.10;;;;;;;;;;5068370;28;20059;-87
2022/11/16 10:06:19;;;;;;;13.13;7.35;;;;;;;;;;5050298;28;20056;-83
2022/11/16 10:08:48;;;;;;;12.63;7.68;;;;;;;;;;5065734;28;20044;-86
2022/11/16 10:11:31;;;;;;;14.93;8.93;;;;;;;;;;5050298;28;20066;-82
2022/11/16 10:14:05;;;;;;;15.80;8.68;;;;;;;;;;5071894;28;20056;-83
2022/11/16 10:16:41;;;;;;;15.07;8.80;;;;;;;;;;5058715;28;20138;-83
2022/11/16 10:19:13;;;;;;;15.30;8.73;;;;;;;;;;5056425;28;20063;-86
2022/11/16 10:21:48;;;;;;;12.70;8.45;;;;;;;;;;5088895;28;20789;-82
2022/11/16 10:24:25;;;;;;;13.10;8.07;;;;;;;;;;5072702;28;20047;-82
2022/11/16 10:27:05;;;;;;;16.75;9.45;;;;;;;;;;5091306;28;20056;-80
2022/11/16 10:29:45;;;;;;;14.18;8.15;;;;;;;;;;5091625;27;20063;-84
2022/11/16 10:32:16;;;;;;;11.60;7.75;;;;;;;;;;5055142;28;20060;-82
2022/11/16 10:34:52;;;;;;;12.80;8.32;;;;;;;;;;5053028;28;20455;-84
2022/11/16 10:37:28;;;;;;;11.77;7.63;;;;;;;;;;5074775;28;20048;-81
2022/11/16 10:40:02;;;;;;;14.57;8.00;;;;;;;;;;5090887;28;20071;-87
2022/11/16 10:42:38;;;;;;;14.55;8.75;;;;;;;;;;5091045;28;21126;-84
2022/11/16 10:45:15;;;;;;;13.45;7.82;;;;;;;;;;5053334;28;21034;-84
2022/11/16 10:47:50;;;;;;;12.65;7.85;;;;;;;;;;5054893;28;20056;-81
2022/11/16 10:50:26;;;;;;;13.88;7.70;;;;;;;;;;5050413;28;20044;-85
2022/11/16 10:52:59;;;;;;;11.27;6.55;;;;;;;;;;5051553;28;20066;-83
2022/11/16 10:55:31;;;;;;;10.45;6.75;;;;;;;;;;5043785;28;20531;-87
2022/11/16 10:58:00;;;;;;;13.38;7.80;;;;;;;;;;5073534;28;20409;-84
2022/11/16 11:00:36;;;;;;;13.38;7.32;;;;;;;;;;5057435;28;21398;-80
2022/11/16 11:03:04;;;;;;;13.35;7.55;;;;;;;;;;5053099;28;20056;-84
2022/11/16 11:05:34;;;;;;;13.70;8.15;;;;;;;;;;5068408;28;20059;-83
2022/11/16 11:08:10;;;;;;;13.15;8.23;;;;;;;;;;5091477;27;20059;-88
2022/11/16 11:10:43;;;;;;;12.73;7.78;;;;;;;;;;5055136;28;20051;-84
2022/11/16 11:13:09;;;;;;;;;;;;;;;;;;5074453;28;20044;-83
2022/11/16 11:15:37;;;;;;;13.85;7.35;;;;;;;;;;5054076;28;19920;-85
2022/11/16 11:18:11;;;;;;;13.23;7.75;;;;;;;;;;5089018;28;20066;-86
2022/11/16 11:20:41;;;;;;;12.52;7.68;;;;;;;;;;5072237;28;21312;-86
2022/11/16 11:23:15;;;;;;;11.77;7.60;;;;;;;;;;5054328;28;20146;-82
2022/11/16 11:25:49;;;;;;;13.68;7.97;;;;;;;;;;5057559;28;20094;-85
2022/11/16 11:28:23;;;;;;;10.95;6.95;;;;;;;;;;5057104;28;20052;-81
2022/11/16 11:30:52;;;;;;;12.68;7.63;;;;;;;;;;5060864;28;20056;-83
2022/11/16 11:33:27;;;;;;;16.00;8.13;;;;;;;;;;5057291;28;20060;-82
2022/11/16 11:36:05;;;;;;;16.40;8.52;;;;;;;;;;5093671;28;20044;-84
2022/11/16 11:38:54;;;;;;;14.77;8.10;;;;;;;;;;5068881;28;21327;-85
2022/11/16 11:41:28;;;;;;;13.35;7.65;;;;;;;;;;5056391;28;20924;-86
2022/11/16 11:44:02;;;;;;;11.27;7.45;;;;;;;;;;5052492;28;20067;-86
2022/11/16 11:46:36;;;;;;;14.35;8.10;;;;;;;;;;5057346;28;20063;-85
2022/11/16 11:49:06;;;;;;;14.48;7.68;;;;;;;;;;5054970;28;20052;-87
2022/11/16 11:51:38;;;;;;;13.68;8.00;;;;;;;;;;5055626;28;20052;-81
2022/11/16 11:54:16;;;;;;;11.68;6.93;;;;;;;;;;5052006;28;20821;-87
2022/11/16 11:56:49;;;;;;;11.00;6.60;;;;;;;;;;5055485;28;20052;-81
2022/11/16 11:59:17;;;;;;;;;;;;;;;;;;5053770;28;20138;-82
2022/11/16 12:01:54;;;;;;;11.98;6.88;;;;;;;;;;5083443;27;19923;-81
2022/11/16 12:04:42;;;;;;;13.10;7.30;;;;;;;;;;5056870;28;20431;-85
2022/11/16 12:07:23;;;;;;;13.50;7.28;;;;;;;;;;5043298;28;20060;-83
2022/11/16 12:09:57;;;;;;;12.05;6.50;;;;;;;;;;5086505;28;21858;-81
2022/11/16 12:12:37;;;;;;;10.77;7.30;;;;;;;;;;5058081;28;20428;-83
2022/11/16 12:15:22;;;;;;;15.07;6.82;;;;;;;;;;5054918;28;20048;-83
2022/11/16 12:17:55;;;;;;;9.73;6.35;;;;;;;;;;5043260;28;20508;-85
2022/11/16 12:20:32;;;;;;;11.10;5.88;;;;;;;;;;5046064;28;20048;-81
2022/11/16 12:23:23;;;;;;;8.55;4.82;;;;;;;;;;5071105;28;20382;-86
2022/11/16 12:25:54;;;;;;;10.20;5.97;;;;;;;;;;5058090;28;20063;-86
2022/11/16 12:28:34;;;;;;;13.68;6.47;;;;;;;;;;5053297;28;20059;-84
2022/11/16 12:31:09;;;;;;;13.13;6.78;;;;;;;;;;5055212;28;20059;-88
2022/11/16 12:33:45;;;;;;;9.60;6.40;;;;;;;;;;5055672;28;20055;-85
2022/11/16 12:36:24;;;;;;;12.43;6.78;;;;;;;;;;5055232;28;20052;-84
2022/11/16 12:39:02;;;;;;;11.13;7.13;;;;;;;;;;5051506;28;20048;-83
2022/11/16 12:41:44;;;;;;;10.18;5.97;;;;;;;;;;5053201;28;20055;-85
2022/11/16 12:44:14;;;;;;;13.35;7.68;;;;;;;;;;5060278;28;20598;-86
2022/11/16 12:46:47;;;;;;;11.60;6.32;;;;;;;;;;5055950;28;20063;-82
2022/11/16 12:49:44;;;;;;;10.15;6.07;;;;;;;;;;5075441;28;20063;-85
2022/11/16 12:52:26;;;;;;;10.25;6.18;;;;;;;;;;5055691;28;20084;-82
2022/11/16 12:55:06;;;;;;;11.80;7.13;;;;;;;;;;5056371;28;20544;-80
2022/11/16 12:57:45;;;;;;;11.20;6.90;;;;;;;;;;5059183;28;20044;-82
2022/11/16 13:00:14;;;;;;;11.50;6.65;;;;;;;;;;5046694;28;20079;-82
2022/11/16 13:02:56;;;;;;;11.60;6.65;;;;;;;;;;5053160;28;20059;-81
2022/11/16 13:05:40;;;;;;;11.95;7.00;;;;;;;;;;5056476;28;20059;-84
2022/11/16 13:08:11;;;;;;;10.48;5.75;;;;;;;;;;5074998;28;20044;-82
2022/11/16 13:10:46;;;;;;;11.27;6.90;;;;;;;;;;5055479;28;20495;-84
2022/11/16 13:13:20;;;;;;;12.98;6.38;;;;;;;;;;5066563;28;20306;-86
2022/11/16 13:15:48;;;;;;;10.00;5.38;;;;;;;;;;5051617;28;20048;-88
2022/11/16 13:18:22;;;;;;;11.80;6.45;;;;;;;;;;5071989;28;20052;-81
2022/11/16 13:20:53;;;;;;;11.68;6.28;;;;;;;;;;5059001;28;20043;-81
2022/11/16 13:23:44;;;;;;;11.13;6.72;;;;;;;;;;5058853;28;20052;-87
2022/11/16 13:26:21;;;;;;;10.32;6.10;;;;;;;;;;5071841;28;20847;-87
2022/11/16 13:28:59;;;;;;;10.80;6.00;;;;;;;;;;5051060;28;20040;-84
2022/11/16 13:31:33;;;;;;;9.70;5.53;;;;;;;;;;5054316;28;20059;-83
2022/11/16 13:34:02;;;;;;;9.98;6.00;;;;;;;;;;5051421;28;20059;-85
2022/11/16 13:36:45;;;;;;;10.05;6.30;;;;;;;;;;5056355;28;20063;-82
2022/11/16 13:39:19;;;;;;;10.20;6.30;;;;;;;;;;5053165;28;20056;-85
2022/11/16 13:41:47;;;;;;;10.48;5.50;;;;;;;;;;5057265;28;20039;-82
2022/11/16 13:44:24;;;;;;;10.88;5.32;;;;;;;;;;5053056;28;21493;-84
2022/11/16 13:46:54;;;;;;;11.20;6.47;;;;;;;;;;5053324;28;20059;-83
2022/11/16 13:49:24;;;;;;;9.90;6.15;;;;;;;;;;5059005;28;20068;-86
2022/11/16 13:51:58;;;;;;;11.38;6.00;;;;;;;;;;5055985;28;20052;-83
2022/11/16 13:54:27;;;;;;;13.02;6.25;;;;;;;;;;5053711;28;20056;-81
2022/11/16 13:56:55;;;;;;;11.98;6.65;;;;;;;;;;5052359;28;20641;-87
2022/11/16 13:59:30;;;;;;;12.02;6.35;;;;;;;;;;5070553;28;20053;-80
2022/11/16 14:01:59;;;;;;;10.57;6.60;;;;;;;;;;5053950;28;20048;-87
2022/11/16 14:04:34;;;;;;;11.88;7.07;;;;;;;;;;5053401;28;20059;-84
2022/11/16 14:07:22;;;;;;;10.73;6.13;;;;;;;;;;5065001;28;20063;-87
2022/11/16 14:09:50;;;;;;;11.35;6.68;;;;;;;;;;5054647;28;20662;-83
2022/11/16 14:12:56;;;;;;;9.88;6.47;;;;;;;;;;5052535;28;20052;-84
2022/11/16 14:15:30;;;;;;;11.48;6.05;;;;;;;;;;5058554;28;21293;-86
2022/11/16 14:18:27;;;;;;;13.88;7.32;;;;;;;;;;5070876;28;20060;-85
2022/11/16 14:20:56;;;;;;;10.93;6.00;;;;;;;;;;5038145;28;20523;-83
2022/11/16 14:23:28;;;;;;;11.10;6.22;;;;;;;;;;5051093;28;20060;-85
2022/11/16 14:26:03;;;;;;;10.32;6.15;;;;;;;;;;5056180;28;20055;-84
2022/11/16 14:28:44;;;;;;;10.80;6.18;;;;;;;;;;5073192;28;20630;-84
2022/11/16 14:31:21;;;;;;;11.52;6.28;;;;;;;;;;5083871;28;20506;-83
2022/11/16 14:33:51;;;;;;;12.02;6.45;;;;;;;;;;5050824;28;20654;-89
2022/11/16 14:36:38;;;;;;;13.10;5.57;;;;;;;;;;5084938;28;20063;-82
2022/11/16 14:39:25;;;;;;;11.93;6.55;;;;;;;;;;5066971;28;20040;-85
2022/11/16 14:41:59;;;;;;;9.35;5.50;;;;;;;;;;5066743;28;20044;-85
2022/11/16 14:44:33;;;;;;;9.25;5.45;;;;;;;;;;5050333;28;20060;-82
2022/11/16 14:47:15;;;;;;;8.73;5.18;;;;;;;;;;5065115;28;20058;-86
2022/11/16 14:49:48;;;;;;;9.38;5.10;;;;;;;;;;5052450;28;20099;-85
2022/11/16 14:52:17;;;;;;;9.52;5.40;;;;;;;;;;5049901;28;21339;-83
2022/11/16 14:54:48;;;;;;;8.93;5.38;;;;;;;;;;5050441;28;20052;-85
2022/11/16 14:57:21;;;;;;;8.50;4.75;;;;;;;;;;5066976;28;20044;-85
2022/11/16 15:00:06;;;;;;;7.03;4.00;;;;;;;;;;5053805;28;20063;-83
2022/11/16 15:02:40;;;;;;;6.88;4.35;;;;;;;;;;5060409;28;20052;-83
2022/11/16 15:05:15;;;;;;;5.35;3.40;;;;;;;;;;5057074;28;20052;-87
2022/11/16 15:07:43;;;;;;;7.22;4.70;;;;;;;;;;5093911;28;20052;-84
2022/11/16 15:10:18;;;;;;;7.43;4.22;;;;;;;;;;5056592;28;20060;-85
2022/11/16 15:12:50;;;;;;;7.80;4.13;;;;;;;;;;5055047;28;20059;-84
2022/11/16 15:15:20;;;;;;;7.45;3.58;;;;;;;;;;5059462;28;20063;-81
2022/11/16 15:18:05;;;;;;;9.18;4.22;;;;;;;;;;5057673;28;20067;-81
2022/11/16 15:20:34;;;;;;;8.25;4.22;;;;;;;;;;5063145;28;20048;-82
2022/11/16 15:23:13;;;;;;;6.72;3.83;;;;;;;;;;5087524;28;20048;-86
2022/11/16 15:25:42;;;;;;;6.78;3.88;;;;;;;;;;5055527;28;20131;-87
2022/11/16 15:28:15;;;;;;;7.70;4.13;;;;;;;;;;5056803;28;20055;-88
2022/11/16 15:30:47;;;;;;;;;;;;;;;;;;5075878;28;20048;-85
2022/11/16 15:33:15;;;;;;;;;;;;;;;;;;5054084;28;19927;-84
2022/11/16 15:35:45;;;;;;;6.43;3.72;;;;;;;;;;5050538;28;19928;-86
2022/11/16 15:38:19;;;;;;;6.78;3.65;;;;;;;;;;5054244;28;20942;-86
2022/11/16 15:40:53;;;;;;;6.85;3.88;;;;;;;;;;5066748;28;20056;-83
2022/11/16 15:43:28;;;;;;;8.32;3.78;;;;;;;;;;5093578;28;20052;-83
2022/11/16 15:46:02;;;;;;;4.80;3.15;;;;;;;;;;5055248;28;20397;-86
2022/11/16 15:48:37;;;;;;;6.15;3.88;;;;;;;;;;5056588;28;20060;-85
2022/11/16 15:51:15;;;;;;;5.28;3.50;;;;;;;;;;5054343;28;20066;-85
2022/11/16 15:53:49;;;;;;;7.50;4.57;;;;;;;;;;5070869;28;20055;-86
2022/11/16 15:56:18;;;;;;;7.78;4.25;;;;;;;;;;5061800;28;20060;-87
2022/11/16 15:58:52;;;;;;;7.95;3.67;;;;;;;;;;5085540;28;20067;-89